Time;durP1;ratioP1;P1;durP2;ratioP2;P2;SDS_P1;SDS_P2;PMS_P1;PMS_P2;Temp;Humidity;BMP_temperature;BMP_pressure;BME280_temperature;BME280_humidity;BME280_pressure;Samples;Min_cycle;Max_cycle;Signal;HPM_P1;HPM_P2
2021/07/04 00:02:18;;;;;;;3.17;2.97;;;;;;;18.08;100.00;95545.69;5032382;28;20227;-83
2021/07/04 00:04:46;;;;;;;3.17;2.93;;;;;;;18.11;100.00;95544.41;5032443;28;20255;-82
2021/07/04 00:07:13;;;;;;;4.17;3.83;;;;;;;18.13;100.00;95548.47;5032293;28;20295;-83
2021/07/04 00:09:41;;;;;;;3.50;3.20;;;;;;;18.09;100.00;95536.66;5032455;28;20671;-83
2021/07/04 00:12:09;;;;;;;5.27;4.10;;;;;;;18.16;100.00;95553.34;5032003;28;20202;-83
2021/07/04 00:14:37;;;;;;;3.67;3.37;;;;;;;18.11;100.00;95558.50;5031960;28;20350;-83
2021/07/04 00:17:06;;;;;;;3.77;3.47;;;;;;;18.11;100.00;95555.06;5032352;28;20248;-82
2021/07/04 00:19:33;;;;;;;3.40;3.20;;;;;;;18.17;100.00;95568.28;5032111;28;20566;-83
2021/07/04 00:22:01;;;;;;;4.40;3.10;;;;;;;18.23;100.00;95590.50;5031855;28;20198;-83
2021/07/04 00:24:28;;;;;;;4.20;3.80;;;;;;;18.35;100.00;95614.50;5031763;28;20234;-83
2021/07/04 00:26:55;;;;;;;3.40;3.10;;;;;;;18.32;100.00;95618.41;5031804;28;20231;-83
2021/07/04 00:29:23;;;;;;;4.03;3.53;;;;;;;18.38;100.00;95627.38;5031756;28;20198;-83
2021/07/04 00:31:50;;;;;;;3.53;3.33;;;;;;;18.39;100.00;95623.66;5031661;28;20231;-83
2021/07/04 00:34:19;;;;;;;3.47;3.27;;;;;;;18.32;100.00;95634.38;5031813;28;20199;-83
2021/07/04 00:36:46;;;;;;;4.77;3.40;;;;;;;18.37;100.00;95636.41;5031695;28;20234;-83
2021/07/04 00:39:13;;;;;;;3.70;3.40;;;;;;;18.31;100.00;95630.09;5031575;28;20238;-83
2021/07/04 00:41:41;;;;;;;3.13;2.93;;;;;;;18.25;100.00;95618.53;5031991;28;20586;-82
2021/07/04 00:44:08;;;;;;;3.60;3.33;;;;;;;18.24;100.00;95616.88;5031633;28;20203;-83
2021/07/04 00:46:35;;;;;;;3.20;3.00;;;;;;;18.12;100.00;95605.38;5031566;28;20223;-83
2021/07/04 00:49:03;;;;;;;4.03;3.63;;;;;;;18.12;100.00;95600.06;5031395;28;20748;-83
2021/07/04 00:51:32;;;;;;;3.53;3.23;;;;;;;18.10;100.00;95585.34;5031315;28;20294;-82
2021/07/04 00:53:59;;;;;;;4.23;3.43;;;;;;;17.96;100.00;95574.03;5031245;28;20260;-82
2021/07/04 00:56:27;;;;;;;3.77;3.43;;;;;;;18.00;100.00;95568.06;5031822;28;20283;-83
2021/07/04 00:58:55;;;;;;;4.17;3.40;;;;;;;17.92;100.00;95556.91;5031572;28;20203;-83
2021/07/04 01:01:22;;;;;;;3.93;3.33;;;;;;;17.88;100.00;95539.78;5031436;28;20275;-82
2021/07/04 01:03:50;;;;;;;4.03;3.67;;;;;;;17.76;100.00;95543.16;5031220;28;20242;-82
2021/07/04 01:06:17;;;;;;;3.53;2.93;;;;;;;17.81;100.00;95540.66;5031060;28;20207;-82
2021/07/04 01:08:46;;;;;;;7.87;3.97;;;;;;;17.86;100.00;95547.16;5030863;28;20247;-82
2021/07/04 01:11:13;;;;;;;3.57;3.27;;;;;;;18.00;100.00;95551.28;5031198;28;20202;-83
2021/07/04 01:13:41;;;;;;;3.83;3.53;;;;;;;18.05;100.00;95567.41;5031152;28;20632;-82
2021/07/04 01:16:08;;;;;;;3.57;3.30;;;;;;;17.88;100.00;95571.69;5031459;28;20630;-82
2021/07/04 01:18:36;;;;;;;3.97;3.67;;;;;;;17.90;100.00;95540.38;5030982;28;20195;-83
2021/07/04 01:21:06;;;;;;;3.37;3.07;;;;;;;18.04;100.00;95521.38;5031089;28;20205;-83
2021/07/04 01:23:35;;;;;;;4.20;3.90;;;;;;;18.08;100.00;95516.44;5030776;28;20252;-83
2021/07/04 01:26:03;;;;;;;4.37;3.30;;;;;;;17.98;100.00;95545.41;5030979;28;20293;-83
2021/07/04 01:28:30;;;;;;;3.70;3.40;;;;;;;17.85;100.00;95551.69;5031195;28;20226;-82
2021/07/04 01:30:59;;;;;;;3.63;3.33;;;;;;;17.64;100.00;95546.75;5030773;28;20238;-82
2021/07/04 01:33:27;;;;;;;3.57;3.27;;;;;;;17.67;100.00;95539.16;5030735;28;20663;-82
2021/07/04 01:35:55;;;;;;;6.33;3.47;;;;;;;17.46;100.00;95523.66;5030866;28;20267;-83
2021/07/04 01:38:22;;;;;;;4.47;4.07;;;;;;;17.46;100.00;95511.19;5030888;28;20234;-83
2021/07/04 01:40:52;;;;;;;4.93;4.00;;;;;;;17.38;100.00;95500.00;5030562;28;20195;-82
2021/07/04 01:43:19;;;;;;;3.40;3.20;;;;;;;17.29;100.00;95492.34;5031116;28;20207;-83
2021/07/04 01:45:48;;;;;;;5.93;3.80;;;;;;;17.29;100.00;95484.38;5030463;28;20202;-82
2021/07/04 01:48:16;;;;;;;3.57;3.27;;;;;;;17.30;100.00;95501.13;5031024;28;20231;-83
2021/07/04 01:50:46;;;;;;;4.00;3.70;;;;;;;17.32;100.00;95507.03;5030430;28;20242;-83
2021/07/04 01:53:16;;;;;;;4.07;3.77;;;;;;;17.44;100.00;95512.41;5030505;28;20236;-82
2021/07/04 01:55:43;;;;;;;4.13;3.20;;;;;;;17.41;100.00;95523.47;5030225;28;20238;-82
2021/07/04 01:58:12;;;;;;;3.73;3.20;;;;;;;17.46;100.00;95526.31;5030866;28;20576;-82
2021/07/04 02:00:41;;;;;;;3.27;3.07;;;;;;;17.38;100.00;95534.53;5030355;28;20194;-82
2021/07/04 02:03:10;;;;;;;3.50;3.20;;;;;;;17.33;100.00;95528.03;5030476;28;20721;-82
2021/07/04 02:05:38;;;;;;;3.13;2.93;;;;;;;17.35;100.00;95531.31;5030117;28;20195;-82
2021/07/04 02:08:07;;;;;;;4.67;2.93;;;;;;;17.37;100.00;95528.41;5030328;28;20779;-82
2021/07/04 02:10:38;;;;;;;3.40;3.20;;;;;;;17.42;100.00;95535.72;5030190;28;20199;-83
2021/07/04 02:13:07;;;;;;;2.83;2.63;;;;;;;17.43;100.00;95545.34;5030126;28;20244;-82
2021/07/04 02:15:39;;;;;;;3.77;3.47;;;;;;;17.57;100.00;95568.91;5030027;28;20229;-83
2021/07/04 02:18:09;;;;;;;3.57;3.37;;;;;;;17.62;100.00;95584.16;5029788;28;20194;-83
2021/07/04 02:20:39;;;;;;;3.63;3.07;;;;;;;17.68;100.00;95593.94;5029637;28;20195;-83
2021/07/04 02:23:08;;;;;;;3.17;2.90;;;;;;;17.68;100.00;95601.91;5030159;28;20203;-82
2021/07/04 02:25:36;;;;;;;3.83;3.07;;;;;;;17.67;100.00;95604.78;5029959;28;20214;-83
2021/07/04 02:28:05;;;;;;;3.50;3.20;;;;;;;17.68;100.00;95599.25;5030016;28;20231;-82
2021/07/04 02:30:33;;;;;;;3.83;3.53;;;;;;;17.69;100.00;95598.19;5029905;28;20198;-82
2021/07/04 02:33:03;;;;;;;3.23;2.93;;;;;;;17.76;100.00;95606.94;5030000;28;20199;-82
2021/07/04 02:35:31;;;;;;;3.07;2.87;;;;;;;17.82;100.00;95608.75;5029755;28;20685;-82
2021/07/04 02:37:58;;;;;;;3.27;3.00;;;;;;;17.79;100.00;95617.16;5030534;28;20249;-83
2021/07/04 02:40:25;;;;;;;3.20;2.90;;;;;;;17.80;100.00;95610.81;5030008;28;20227;-83
2021/07/04 02:42:53;;;;;;;6.07;3.10;;;;;;;17.85;100.00;95612.81;5029798;28;20207;-83
2021/07/04 02:45:21;;;;;;;3.53;3.23;;;;;;;17.86;100.00;95622.41;5029461;28;20203;-83
2021/07/04 02:47:48;;;;;;;3.20;2.90;;;;;;;17.87;100.00;95607.25;5029698;28;20645;-82
2021/07/04 02:50:21;;;;;;;2.90;2.70;;;;;;;17.88;100.00;95614.22;5029555;28;20199;-82
2021/07/04 02:52:48;;;;;;;3.07;2.87;;;;;;;17.72;100.00;95587.13;5030038;28;20191;-82
2021/07/04 02:55:15;;;;;;;3.57;3.27;;;;;;;17.70;100.00;95577.75;5029202;28;20764;-83
2021/07/04 02:57:43;;;;;;;4.53;3.20;;;;;;;17.67;100.00;95571.06;5029933;28;20202;-83
2021/07/04 03:00:14;;;;;;;3.53;3.23;;;;;;;17.67;100.00;95578.22;5029619;28;20252;-83
2021/07/04 03:02:41;;;;;;;4.10;3.63;;;;;;;17.71;100.00;95568.75;5029365;28;20183;-83
2021/07/04 03:05:11;;;;;;;3.90;3.40;;;;;;;17.75;100.00;95578.72;5029537;28;20195;-82
2021/07/04 03:07:40;;;;;;;3.20;3.00;;;;;;;17.78;100.00;95583.63;5029727;28;20686;-83
2021/07/04 03:10:11;;;;;;;3.50;3.30;;;;;;;17.75;100.00;95581.38;5029756;28;20356;-82
2021/07/04 03:12:38;;;;;;;3.87;3.37;;;;;;;17.83;100.00;95575.81;5029766;28;20213;-82
2021/07/04 03:15:09;;;;;;;3.33;3.13;;;;;;;17.79;100.00;95590.56;5029309;28;20285;-83
2021/07/04 03:17:36;;;;;;;3.57;3.27;;;;;;;17.54;100.00;95601.22;5029392;28;20649;-82
2021/07/04 03:20:09;;;;;;;3.40;3.20;;;;;;;17.55;100.00;95589.53;5029251;28;20205;-83
2021/07/04 03:22:36;;;;;;;3.53;3.23;;;;;;;17.60;100.00;95575.63;5029009;28;20203;-82
2021/07/04 03:25:09;;;;;;;3.87;3.57;;;;;;;17.64;100.00;95568.81;5029626;28;20619;-82
2021/07/04 03:27:37;;;;;;;3.40;3.10;;;;;;;17.68;100.00;95553.25;5029178;28;20396;-83
2021/07/04 03:30:06;;;;;;;3.53;3.23;;;;;;;17.55;100.00;95610.00;5028948;28;20199;-82
2021/07/04 03:32:34;;;;;;;3.53;3.23;;;;;;;17.37;100.00;95601.97;5029472;28;20230;-82
2021/07/04 03:35:01;;;;;;;3.07;2.87;;;;;;;17.14;100.00;95576.00;5028629;28;20204;-83
2021/07/04 03:37:28;;;;;;;2.90;2.70;;;;;;;17.08;100.00;95548.50;5029196;28;20198;-82
2021/07/04 03:39:56;;;;;;;3.97;3.63;;;;;;;17.14;100.00;95533.53;5028905;28;20205;-82
2021/07/04 03:42:24;;;;;;;3.43;3.13;;;;;;;17.31;100.00;95526.63;5029078;28;20686;-82
2021/07/04 03:44:52;;;;;;;3.30;2.90;;;;;;;17.29;100.00;95500.31;5028618;28;20230;-83
2021/07/04 03:47:23;;;;;;;3.90;3.17;;;;;;;17.27;100.00;95497.03;5028946;28;20223;-83
2021/07/04 03:49:51;;;;;;;3.27;2.97;;;;;;;17.32;100.00;95497.22;5029067;28;20191;-82
2021/07/04 03:52:18;;;;;;;3.60;3.30;;;;;;;17.41;100.00;95487.09;5028934;28;20289;-83
2021/07/04 03:54:45;;;;;;;3.07;2.87;;;;;;;17.38;100.00;95494.69;5028488;28;20325;-83
2021/07/04 03:57:22;;;;;;;5.97;4.13;;;;;;;17.34;100.00;95492.47;5028653;28;20203;-82
2021/07/04 03:59:53;;;;;;;3.50;3.20;;;;;;;17.43;100.00;95468.31;5029003;28;20564;-82
2021/07/04 04:02:23;;;;;;;3.17;2.97;;;;;;;17.43;100.00;95473.63;5028892;28;20243;-82
2021/07/04 04:04:50;;;;;;;3.53;3.33;;;;;;;17.45;100.00;95466.22;5029097;28;20210;-83
2021/07/04 04:07:18;;;;;;;4.03;3.73;;;;;;;17.41;100.00;95452.56;5028468;28;20264;-82
2021/07/04 04:09:47;;;;;;;3.93;3.60;;;;;;;17.51;100.00;95470.66;5028416;28;20203;-83
2021/07/04 04:12:15;;;;;;;3.37;3.17;;;;;;;17.53;100.00;95464.09;5029042;28;20238;-83
2021/07/04 04:14:42;;;;;;;4.00;3.70;;;;;;;17.54;100.00;95462.25;5028520;28;20675;-83
2021/07/04 04:17:11;;;;;;;3.87;3.57;;;;;;;17.59;100.00;95451.75;5028395;28;20201;-82
2021/07/04 04:19:38;;;;;;;5.07;3.90;;;;;;;17.62;100.00;95448.66;5028327;28;20217;-82
2021/07/04 04:22:06;;;;;;;4.07;3.77;;;;;;;17.70;100.00;95444.88;5028854;28;20209;-82
2021/07/04 04:24:33;;;;;;;4.07;3.77;;;;;;;17.74;100.00;95467.34;5028308;28;20202;-83
2021/07/04 04:27:00;;;;;;;3.47;3.23;;;;;;;17.86;100.00;95475.41;5028259;28;20282;-83
2021/07/04 04:29:28;;;;;;;3.60;3.30;;;;;;;17.85;100.00;95468.47;5028185;28;20219;-82
2021/07/04 04:31:55;;;;;;;4.97;4.20;;;;;;;17.86;100.00;95462.91;5028838;28;20298;-82
2021/07/04 04:34:24;;;;;;;6.20;3.80;;;;;;;17.87;100.00;95442.44;5028215;28;20255;-82
2021/07/04 04:36:51;;;;;;;3.70;3.40;;;;;;;17.91;100.00;95441.81;5028221;28;20239;-82
2021/07/04 04:39:20;;;;;;;3.80;3.37;;;;;;;17.92;100.00;95442.59;5028612;28;20259;-82
2021/07/04 04:41:48;;;;;;;4.87;4.07;;;;;;;17.95;100.00;95468.75;5028673;28;20256;-83
2021/07/04 04:44:16;;;;;;;4.20;3.70;;;;;;;17.99;100.00;95475.22;5031560;28;20572;-83
2021/07/04 04:46:43;;;;;;;4.87;4.40;;;;;;;18.10;100.00;95473.66;5031446;28;20201;-82
2021/07/04 04:49:11;;;;;;;4.03;3.50;;;;;;;18.22;100.00;95483.31;5031307;28;20269;-82
2021/07/04 04:51:40;;;;;;;3.43;3.20;;;;;;;18.26;100.00;95484.50;5031620;28;20289;-83
2021/07/04 04:54:09;;;;;;;3.80;3.50;;;;;;;18.36;100.00;95510.56;5031197;28;20227;-83
2021/07/04 04:56:36;;;;;;;3.53;3.33;;;;;;;18.43;100.00;95539.72;5031409;28;20227;-82
2021/07/04 04:59:05;;;;;;;4.30;3.73;;;;;;;18.43;100.00;95543.19;5031501;28;20223;-83
2021/07/04 05:01:32;;;;;;;4.00;3.07;;;;;;;18.56;100.00;95547.50;5031385;28;20199;-83
2021/07/04 05:04:00;;;;;;;3.13;2.93;;;;;;;18.63;100.00;95558.88;5031524;28;20234;-82
2021/07/04 05:06:27;;;;;;;3.10;2.77;;;;;;;18.66;100.00;95576.25;5031103;28;20255;-82
2021/07/04 05:08:56;;;;;;;3.60;3.30;;;;;;;18.71;100.00;95571.91;5031047;28;20280;-82
2021/07/04 05:11:23;;;;;;;3.90;3.60;;;;;;;18.80;100.00;95558.25;5031331;28;20195;-83
2021/07/04 05:13:51;;;;;;;3.97;3.20;;;;;;;18.90;100.00;95555.88;5031063;28;20275;-83
2021/07/04 05:16:19;;;;;;;3.43;3.23;;;;;;;19.01;100.00;95563.06;5031026;28;20285;-83
2021/07/04 05:18:46;;;;;;;3.60;3.37;;;;;;;19.17;100.00;95558.94;5031002;28;20205;-82
2021/07/04 05:21:14;;;;;;;3.60;3.40;;;;;;;19.21;100.00;95584.06;5031382;28;20582;-82
2021/07/04 05:23:41;;;;;;;3.50;3.27;;;;;;;19.25;100.00;95604.69;5031016;28;20290;-82
2021/07/04 05:26:10;;;;;;;4.43;4.13;;;;;;;19.35;100.00;95619.31;5030732;28;20213;-82
2021/07/04 05:28:39;;;;;;;4.37;4.00;;;;;;;19.41;100.00;95640.50;5030826;28;20275;-83
2021/07/04 05:31:07;;;;;;;4.17;3.87;;;;;;;19.53;100.00;95669.03;5030956;28;20206;-82
2021/07/04 05:33:34;;;;;;;4.70;4.30;;;;;;;19.57;100.00;95684.38;5031147;28;20279;-82
2021/07/04 05:36:01;;;;;;;5.07;4.67;;;;;;;19.70;100.00;95696.69;5030825;28;20209;-83
2021/07/04 05:38:33;;;;;;;4.27;3.90;;;;;;;19.86;100.00;95705.88;5030864;28;20251;-82
2021/07/04 05:41:00;;;;;;;6.67;4.60;;;;;;;19.98;100.00;95720.00;5030791;28;20191;-83
2021/07/04 05:43:29;;;;;;;6.80;4.63;;;;;;;20.00;100.00;95733.94;5031081;28;20267;-82
2021/07/04 05:45:59;;;;;;;5.17;4.57;;;;;;;20.17;100.00;95753.56;5030627;28;20290;-83
2021/07/04 05:48:27;;;;;;;4.80;4.40;;;;;;;20.36;100.00;95766.78;5030690;28;20230;-82
2021/07/04 05:50:55;;;;;;;5.43;4.97;;;;;;;20.38;100.00;95772.72;5030903;28;20285;-83
2021/07/04 05:53:22;;;;;;;5.37;4.87;;;;;;;20.57;100.00;95782.22;5030743;28;20242;-83
2021/07/04 05:55:49;;;;;;;4.67;4.37;;;;;;;20.75;100.00;95791.16;5030969;28;20272;-83
2021/07/04 05:58:17;;;;;;;5.30;4.87;;;;;;;20.72;100.00;95823.69;5030550;28;20273;-83
2021/07/04 06:00:46;;;;;;;4.60;4.20;;;;;;;20.81;100.00;95824.94;5030266;28;20203;-82
2021/07/04 06:03:13;;;;;;;6.07;5.57;;;;;;;20.87;100.00;95832.84;5030817;28;20300;-83
2021/07/04 06:05:41;;;;;;;5.20;4.43;;;;;;;20.87;100.00;95846.19;5030556;28;20729;-82
2021/07/04 06:08:08;;;;;;;5.27;4.73;;;;;;;20.97;100.00;95840.28;5030316;28;20275;-82
2021/07/04 06:10:36;;;;;;;5.37;4.87;;;;;;;21.06;100.00;95857.56;5029926;28;20581;-83
2021/07/04 06:13:05;;;;;;;4.90;4.37;;;;;;;21.22;100.00;95857.88;5030306;28;20205;-83
2021/07/04 06:15:33;;;;;;;4.90;4.40;;;;;;;21.17;100.00;95857.78;5030163;28;20281;-83
2021/07/04 06:18:01;;;;;;;4.83;4.50;;;;;;;21.29;100.00;95869.25;5030099;28;20213;-83
2021/07/04 06:20:29;;;;;;;4.93;4.53;;;;;;;21.47;100.00;95887.03;5030107;28;20237;-82
2021/07/04 06:22:56;;;;;;;4.50;4.07;;;;;;;21.58;100.00;95883.53;5030371;28;20198;-83
2021/07/04 06:25:24;;;;;;;5.50;5.00;;;;;;;21.69;100.00;95889.91;5029937;28;20689;-83
2021/07/04 06:27:52;;;;;;;4.70;4.30;;;;;;;21.88;100.00;95891.31;5030043;28;20198;-83
2021/07/04 06:30:20;;;;;;;5.40;4.90;;;;;;;21.94;100.00;95902.94;5029698;28;20216;-82
2021/07/04 06:32:48;;;;;;;5.37;4.90;;;;;;;21.84;100.00;95900.88;5030029;28;20195;-83
2021/07/04 06:35:17;;;;;;;5.77;4.90;;;;;;;22.03;100.00;95899.66;5029829;28;20700;-83
2021/07/04 06:37:45;;;;;;;4.73;4.37;;;;;;;22.11;100.00;95903.78;5029753;28;20239;-83
2021/07/04 06:40:14;;;;;;;5.00;4.57;;;;;;;22.12;100.00;95899.25;5029953;28;20209;-83
2021/07/04 06:42:41;;;;;;;7.13;4.67;;;;;;;22.40;100.00;95898.44;5029891;28;20202;-83
2021/07/04 06:45:11;;;;;;;5.03;4.73;;;;;;;22.50;100.00;95907.44;5029682;28;20286;-83
2021/07/04 06:47:38;;;;;;;6.03;4.40;;;;;;;22.62;100.00;95904.72;5030363;28;20203;-83
2021/07/04 06:50:07;;;;;;;4.83;4.33;;;;;;;22.37;100.00;95928.38;5029200;28;20771;-83
2021/07/04 06:52:36;;;;;;;5.90;4.37;;;;;;;22.50;100.00;95914.66;5029613;28;20234;-83
2021/07/04 06:55:06;;;;;;;4.67;4.27;;;;;;;22.59;100.00;95909.75;5029041;28;20259;-82
2021/07/04 06:57:33;;;;;;;4.33;4.03;;;;;;;22.74;100.00;95909.97;5029602;28;20629;-83
2021/07/04 07:00:03;;;;;;;5.53;5.03;;;;;;;23.00;100.00;95901.31;5029261;28;20199;-82
2021/07/04 07:02:32;;;;;;;4.47;4.17;;;;;;;23.10;100.00;95908.66;5029719;28;20183;-83
2021/07/04 07:04:59;;;;;;;3.60;3.40;;;;;;;22.89;100.00;95928.16;5028763;28;20679;-83
2021/07/04 07:07:26;;;;;;;4.50;4.17;;;;;;;22.90;100.00;95930.59;5029597;28;20252;-83
2021/07/04 07:09:55;;;;;;;4.27;3.90;;;;;;;22.95;100.00;95938.72;5029283;28;20312;-83
2021/07/04 07:12:22;;;;;;;4.13;3.83;;;;;;;22.89;100.00;95945.03;5029424;28;20290;-83
2021/07/04 07:14:50;;;;;;;4.10;3.90;;;;;;;22.86;100.00;95945.53;5029257;28;20199;-83
2021/07/04 07:17:17;;;;;;;5.63;3.90;;;;;;;22.90;100.00;95945.88;5029636;28;20248;-83
2021/07/04 07:19:45;;;;;;;4.10;3.80;;;;;;;23.08;100.00;95936.78;5028935;28;20195;-83
2021/07/04 07:22:12;;;;;;;3.73;3.40;;;;;;;23.11;100.00;95947.03;5029597;28;20639;-83
2021/07/04 07:24:39;;;;;;;3.53;3.23;;;;;;;22.94;100.00;95939.81;5029138;28;20199;-83
2021/07/04 07:27:08;;;;;;;3.87;3.57;;;;;;;23.23;100.00;95932.44;5029271;28;20647;-82
2021/07/04 07:29:35;;;;;;;3.83;3.53;;;;;;;22.96;100.00;95940.34;5028717;28;20226;-81
2021/07/04 07:32:03;;;;;;;3.70;3.40;;;;;;;23.29;100.00;95935.22;5029431;28;20297;-82
2021/07/04 07:34:30;;;;;;;3.87;3.57;;;;;;;23.43;100.00;95934.59;5028990;28;20238;-83
2021/07/04 07:36:58;;;;;;;3.50;3.30;;;;;;;23.23;100.00;95948.53;5029415;28;20202;-83
2021/07/04 07:39:25;;;;;;;4.13;3.57;;;;;;;23.20;100.00;95954.38;5028910;28;20740;-83
2021/07/04 07:41:53;;;;;;;4.33;3.57;;;;;;;23.34;100.00;95952.16;5028815;28;20199;-83
2021/07/04 07:44:21;;;;;;;4.07;3.50;;;;;;;23.47;100.00;95949.13;5028873;28;20209;-83
2021/07/04 07:46:49;;;;;;;3.33;3.13;;;;;;;23.67;100.00;95950.47;5029010;28;20290;-83
2021/07/04 07:49:17;;;;;;;3.47;2.90;;;;;;;23.46;100.00;95952.06;5028759;28;20310;-83
2021/07/04 07:51:49;;;;;;;5.80;3.67;;;;;;;23.57;100.00;95944.97;5028727;28;20238;-83
2021/07/04 07:54:17;;;;;;;3.63;3.27;;;;;;;23.86;100.00;95942.94;5028619;28;20270;-83
2021/07/04 07:56:44;;;;;;;3.10;2.80;;;;;;;23.96;100.00;95940.38;5029062;28;20206;-83
2021/07/04 07:59:11;;;;;;;3.47;3.00;;;;;;;24.15;100.00;95962.34;5028480;28;20231;-83
2021/07/04 08:01:40;;;;;;;3.37;3.07;;;;;;;24.06;100.00;95959.28;5028841;28;20202;-83
2021/07/04 08:04:08;;;;;;;3.33;3.13;;;;;;;24.22;100.00;95949.53;5028588;28;20293;-83
2021/07/04 08:06:35;;;;;;;3.47;3.17;;;;;;;24.41;100.00;95960.75;5028759;28;20366;-83
2021/07/04 08:09:03;;;;;;;3.43;3.13;;;;;;;24.37;100.00;95963.13;5028526;28;20222;-82
2021/07/04 08:11:30;;;;;;;3.37;3.17;;;;;;;24.49;100.00;95963.00;5028967;28;20240;-83
2021/07/04 08:13:58;;;;;;;2.83;2.63;;;;;;;24.62;100.00;95972.50;5028453;28;20198;-82
2021/07/04 08:16:25;;;;;;;3.83;3.53;;;;;;;24.72;100.00;95966.44;5028602;28;20214;-83
2021/07/04 08:18:54;;;;;;;3.50;3.20;;;;;;;24.43;100.00;95974.75;5031838;28;20191;-83
2021/07/04 08:21:21;;;;;;;3.73;3.43;;;;;;;23.89;100.00;95967.41;5032131;28;20233;-83
2021/07/04 08:23:49;;;;;;;3.30;3.00;;;;;;;24.24;100.00;95976.94;5031924;28;20201;-83
2021/07/04 08:26:17;;;;;;;3.40;3.17;;;;;;;24.56;100.00;95976.22;5032234;28;20293;-83
2021/07/04 08:28:44;;;;;;;6.67;3.30;;;;;;;24.77;100.00;95980.72;5031840;28;20334;-83
2021/07/04 08:31:11;;;;;;;4.53;3.10;;;;;;;24.70;100.00;95971.22;5032191;28;20201;-83
2021/07/04 08:33:39;;;;;;;2.90;2.70;;;;;;;24.84;100.00;95967.88;5031866;28;20289;-83
2021/07/04 08:36:08;;;;;;;3.67;2.87;;;;;;;24.84;100.00;95970.56;5032021;28;20234;-83
2021/07/04 08:38:35;;;;;;;3.37;3.13;;;;;;;25.07;100.00;95968.59;5031475;28;20202;-83
2021/07/04 08:41:03;;;;;;;3.03;2.83;;;;;;;25.13;100.00;95970.28;5031945;28;20199;-83
2021/07/04 08:43:33;;;;;;;3.33;3.03;;;;;;;24.81;100.00;95962.22;5031682;28;20198;-83
2021/07/04 08:46:02;;;;;;;2.77;2.57;;;;;;;24.78;100.00;95979.66;5031626;28;20587;-83
2021/07/04 08:48:29;;;;;;;3.07;2.87;;;;;;;24.88;100.00;95970.88;5031398;28;20275;-83
2021/07/04 08:50:57;;;;;;;3.07;2.87;;;;;;;24.98;100.00;95978.22;5031485;28;20249;-84
2021/07/04 08:53:26;;;;;;;3.20;3.00;;;;;;;25.02;100.00;95971.25;5031344;28;20199;-84
2021/07/04 08:55:53;;;;;;;3.00;2.80;;;;;;;25.14;100.00;95972.69;5031502;28;20183;-84
2021/07/04 08:58:22;;;;;;;3.03;2.83;;;;;;;25.20;100.00;95976.25;5031228;28;20582;-83
2021/07/04 09:01:15;;;;;;;2.30;2.20;;;;;;;25.32;100.00;95974.19;5031352;28;20732;-83
2021/07/04 09:03:45;;;;;;;4.00;2.77;;;;;;;25.40;100.00;95975.59;5031274;28;20195;-83
2021/07/04 09:06:13;;;;;;;3.67;2.50;;;;;;;25.31;100.00;95975.25;5031149;28;20237;-83
2021/07/04 09:08:42;;;;;;;3.63;3.33;;;;;;;24.86;100.00;95981.88;5031434;28;20568;-83
2021/07/04 09:11:11;;;;;;;3.23;3.03;;;;;;;25.17;100.00;95984.84;5031228;28;20202;-83
2021/07/04 09:13:39;;;;;;;3.07;2.87;;;;;;;25.16;100.00;95987.78;5031697;28;20255;-83
2021/07/04 09:16:08;;;;;;;3.83;3.53;;;;;;;25.16;100.00;95980.53;5030958;28;20203;-83
2021/07/04 09:18:36;;;;;;;2.97;2.70;;;;;;;25.28;100.00;95985.72;5031427;28;20202;-83
2021/07/04 09:21:17;;;;;;;3.33;3.03;;;;;;;25.19;100.00;95988.09;5031077;28;20201;-84
2021/07/04 09:23:46;;;;;;;3.23;3.03;;;;;;;25.61;100.00;95989.97;5031046;28;20187;-83
2021/07/04 09:26:41;;;;;;;4.77;3.23;;;;;;;25.75;100.00;95995.69;5031236;28;20634;-84
2021/07/04 09:29:10;;;;;;;3.13;2.83;;;;;;;25.79;100.00;95986.03;5030464;28;20207;-83
2021/07/04 09:31:39;;;;;;;4.30;2.80;;;;;;;25.49;100.00;95989.34;5031502;28;20198;-83
2021/07/04 09:34:08;;;;;;;3.90;3.03;;;;;;;25.85;100.00;95985.00;5030706;28;20668;-85
2021/07/04 09:36:36;;;;;;;5.27;3.00;;;;;;;26.03;100.00;95991.81;5030721;28;20204;-84
2021/07/04 09:39:18;;;;;;;3.22;2.72;;;;;;;26.02;100.00;95988.31;5030960;28;20274;-84
2021/07/04 09:42:09;;;;;;;2.97;2.78;;;;;;;26.27;100.00;95989.47;5031214;28;20552;-83
2021/07/04 09:44:37;;;;;;;3.38;3.17;;;;;;;26.04;100.00;95988.03;5030822;28;20236;-84
2021/07/04 09:47:18;;;;;;;3.15;2.95;;;;;;;26.16;100.00;95988.63;5030785;28;20207;-84
2021/07/04 09:49:47;;;;;;;3.72;3.10;;;;;;;26.19;100.00;95990.81;5030598;28;20243;-84
2021/07/04 09:52:16;;;;;;;4.57;3.05;;;;;;;26.15;100.00;95986.19;5030711;28;20202;-84
2021/07/04 09:55:01;;;;;;;3.55;3.05;;;;;;;26.11;100.00;95977.84;5030529;28;20303;-83
2021/07/04 09:57:49;;;;;;;6.63;3.67;;;;;;;25.98;100.00;95975.63;5029449;28;20198;-84
2021/07/04 10:00:18;;;;;;;3.22;3.03;;;;;;;26.42;100.00;95986.00;5030212;28;20305;-84
2021/07/04 10:03:08;;;;;;;3.95;2.97;;;;;;;26.50;100.00;95989.03;5030834;28;20212;-84
2021/07/04 10:05:36;;;;;;;3.30;3.00;;;;;;;26.44;100.00;95984.69;5030740;28;20582;-84
2021/07/04 10:08:19;;;;;;;3.03;2.75;;;;;;;26.60;100.00;95985.53;5030235;28;20233;-84
2021/07/04 10:10:48;;;;;;;3.08;2.88;;;;;;;26.39;100.00;95998.13;5030769;28;20236;-83
2021/07/04 10:13:15;;;;;;;4.13;3.28;;;;;;;26.49;100.00;95992.78;5030382;28;20702;-83
2021/07/04 10:15:43;;;;;;;3.58;3.20;;;;;;;26.48;100.00;95998.47;5030357;28;20198;-84
2021/07/04 10:18:12;;;;;;;2.92;2.72;;;;;;;27.02;100.00;95992.59;5030056;28;20255;-84
2021/07/04 10:20:40;;;;;;;3.10;2.90;;;;;;;27.00;100.00;95983.97;5030102;28;20248;-84
2021/07/04 10:23:10;;;;;;;3.85;3.55;;;;;;;26.91;100.00;95974.78;5030212;28;20249;-84
2021/07/04 10:25:37;;;;;;;3.20;3.00;;;;;;;26.99;100.00;95990.44;5030263;28;20242;-84
2021/07/04 10:28:08;;;;;;;8.02;3.80;;;;;;;27.27;100.00;95970.22;5030174;28;20290;-83
2021/07/04 10:30:36;;;;;;;4.40;3.55;;;;;;;27.12;100.00;95981.84;5029710;28;20253;-84
2021/07/04 10:33:14;;;;;;;3.80;3.50;;;;;;;26.93;100.00;95984.22;5030084;28;20742;-84
2021/07/04 10:35:59;;;;;;;4.32;2.90;;;;;;;26.89;100.00;95975.06;5029894;28;20680;-84
2021/07/04 10:38:37;;;;;;;4.32;3.95;;;;;;;27.01;100.00;95980.19;5029812;28;20191;-83
2021/07/04 10:41:08;;;;;;;3.95;3.50;;;;;;;26.88;100.00;95988.81;5028935;28;20214;-84
2021/07/04 10:43:58;;;;;;;3.30;3.00;;;;;;;26.83;100.00;95980.72;5029841;28;20671;-83
2021/07/04 10:47:06;;;;;;;4.03;3.35;;;;;;;27.11;100.00;95966.69;5029861;28;20226;-84
2021/07/04 10:49:54;;;;;;;3.40;3.17;;;;;;;27.22;100.00;95971.03;5021339;28;20313;-84
2021/07/04 10:52:40;;;;;;;3.58;3.28;;;;;;;27.20;100.00;95975.09;5029822;28;20658;-84
2021/07/04 10:55:10;;;;;;;3.78;3.47;;;;;;;27.22;100.00;95965.63;5029527;28;20265;-83
2021/07/04 10:57:53;;;;;;;3.85;3.55;;;;;;;27.28;100.00;95966.44;5029789;28;20192;-83
2021/07/04 11:00:27;;;;;;;3.45;3.20;;;;;;;26.99;100.00;95958.88;5029258;28;20183;-84
2021/07/04 11:02:57;;;;;;;4.57;4.28;;;;;;;27.02;100.00;95952.97;5029695;28;20250;-83
2021/07/04 11:05:51;;;;;;;4.30;4.00;;;;;;;27.00;100.00;95962.38;5029360;28;20202;-84
2021/07/04 11:08:26;;;;;;;3.50;3.20;;;;;;;27.07;100.00;95967.50;4994738;28;20578;-83
2021/07/04 11:10:56;;;;;;;3.95;3.47;;;;;;;27.23;100.00;95959.16;5029332;28;20210;-84
2021/07/04 11:13:31;;;;;;;3.42;3.15;;;;;;;27.50;100.00;95966.13;5029176;28;20238;-84
2021/07/04 11:16:26;;;;;;;3.40;3.10;;;;;;;27.41;100.00;95965.88;5029641;28;20600;-84
2021/07/04 11:18:56;;;;;;;4.00;3.55;;;;;;;27.64;100.00;95953.69;5029208;28;20626;-84
2021/07/04 11:21:51;;;;;;;3.60;3.28;;;;;;;27.70;100.00;95962.56;5029732;28;20183;-85
2021/07/04 11:24:20;;;;;;;3.55;3.22;;;;;;;27.23;100.00;95961.06;5028903;28;20191;-83
2021/07/04 11:27:21;;;;;;;5.45;3.90;;;;;;;26.68;100.00;95963.47;5029592;28;20203;-84
2021/07/04 11:30:26;;;;;;;3.53;3.30;;;;;;;27.26;100.00;95961.34;5029025;28;20639;-84
2021/07/04 11:33:26;;;;;;;4.18;3.40;;;;;;;26.99;100.00;95956.19;5029461;28;20218;-84
2021/07/04 11:35:55;;;;;;;4.00;3.60;;;;;;;26.67;100.00;95969.94;5029151;28;20198;-83
2021/07/04 11:38:24;;;;;;;3.78;3.47;;;;;;;27.02;100.00;95968.34;5029085;28;20238;-84